createdAt,value
2022-12-16T00:01:57.810Z,108.10
2022-12-16T00:05:27.895Z,97.90
2022-12-16T00:08:57.069Z,98.50
2022-12-16T00:12:28.034Z,101.80
2022-12-16T00:15:57.225Z,105.50
2022-12-16T00:19:28.114Z,105.20
2022-12-16T00:22:56.198Z,104.30
2022-12-16T00:26:31.489Z,98.60
2022-12-16T00:30:00.757Z,101.70
2022-12-16T00:33:29.499Z,95.00
2022-12-16T00:36:56.725Z,103.10
2022-12-16T00:40:23.441Z,100.70
2022-12-16T00:43:54.997Z,99.90
2022-12-16T00:47:27.717Z,102.90
2022-12-16T00:50:57.569Z,100.80
2022-12-16T00:54:24.613Z,116.50
2022-12-16T00:57:51.668Z,106.00
2022-12-16T01:01:22.584Z,95.90
2022-12-16T01:04:50.048Z,101.10
2022-12-16T01:08:23.446Z,102.60
2022-12-16T01:11:51.917Z,101.20
2022-12-16T01:15:20.672Z,100.50
2022-12-16T01:18:48.347Z,99.60
2022-12-16T01:22:15.439Z,97.90
2022-12-16T01:25:41.740Z,106.00
2022-12-16T01:29:08.727Z,101.70
2022-12-16T01:32:35.715Z,103.00
2022-12-16T01:36:08.300Z,112.30
2022-12-16T01:39:35.855Z,110.20
2022-12-16T01:43:03.028Z,104.40
2022-12-16T01:46:29.952Z,111.30
2022-12-16T01:50:01.010Z,121.40
2022-12-16T01:53:30.711Z,113.20
2022-12-16T01:57:02.482Z,117.80
2022-12-16T02:00:30.795Z,102.90
2022-12-16T02:04:02.056Z,109.40
2022-12-16T02:07:29.555Z,110.70
2022-12-16T02:11:10.057Z,112.20
2022-12-16T02:14:58.605Z,105.30
2022-12-16T02:18:41.955Z,97.20
2022-12-16T02:22:20.063Z,101.70
2022-12-16T02:26:16.332Z,104.60
2022-12-16T02:30:05.658Z,108.90
2022-12-16T02:33:45.254Z,101.80
2022-12-16T02:37:22.317Z,102.30
2022-12-16T02:40:54.405Z,113.20
2022-12-16T02:44:27.812Z,119.80
2022-12-16T02:47:54.677Z,113.70
2022-12-16T02:51:22.286Z,108.60
2022-12-16T02:54:50.572Z,106.60
2022-12-16T02:58:26.654Z,113.40
2022-12-16T03:02:00.246Z,116.80
2022-12-16T03:05:31.965Z,119.80
2022-12-16T03:09:03.531Z,117.20
2022-12-16T03:12:30.553Z,122.80
2022-12-16T03:15:59.861Z,116.10
2022-12-16T03:19:29.398Z,113.50
2022-12-16T03:23:00.415Z,116.30
2022-12-16T03:26:32.233Z,111.90
2022-12-16T03:30:04.847Z,117.70
2022-12-16T03:33:40.710Z,114.10
2022-12-16T03:37:15.467Z,129.80
2022-12-16T03:40:47.049Z,121.40
2022-12-16T03:44:14.441Z,123.40
2022-12-16T03:47:41.462Z,122.80
2022-12-16T03:51:09.152Z,126.00
2022-12-16T03:54:36.105Z,115.10
2022-12-16T03:58:02.986Z,123.10
2022-12-16T04:01:29.951Z,119.90
2022-12-16T04:04:57.160Z,117.60
2022-12-16T04:08:26.984Z,121.50
2022-12-16T04:12:11.170Z,114.00
2022-12-16T04:15:55.431Z,119.00
2022-12-16T04:19:46.202Z,113.80
2022-12-16T04:23:31.520Z,118.20
2022-12-16T04:27:16.210Z,117.80
2022-12-16T04:30:43.767Z,129.80
2022-12-16T04:34:29.568Z,119.90
2022-12-16T04:38:12.852Z,130.30
2022-12-16T04:41:57.929Z,124.10
2022-12-16T04:45:42.052Z,143.50
2022-12-16T04:49:26.860Z,143.20
2022-12-16T04:53:13.265Z,138.10
2022-12-16T04:56:57.361Z,136.50
2022-12-16T05:00:43.437Z,139.60
2022-12-16T05:04:27.837Z,143.30
2022-12-16T05:08:12.297Z,139.40
2022-12-16T05:11:56.761Z,131.90
2022-12-16T05:15:41.388Z,133.50
2022-12-16T05:19:31.460Z,140.10
2022-12-16T05:23:17.560Z,135.30
2022-12-16T05:27:01.717Z,141.50
2022-12-16T05:30:45.882Z,148.60
2022-12-16T05:34:30.381Z,142.80
2022-12-16T05:38:14.428Z,142.40
2022-12-16T05:41:58.602Z,132.20
2022-12-16T05:45:43.237Z,127.90
2022-12-16T05:49:39.053Z,138.00
2022-12-16T05:53:23.097Z,147.20
2022-12-16T05:57:04.610Z,144.80
2022-12-16T06:00:52.771Z,139.60
2022-12-16T06:04:36.601Z,147.40
2022-12-16T06:08:21.460Z,145.00
2022-12-16T06:12:02.147Z,152.00
2022-12-16T06:15:46.460Z,141.20
2022-12-16T06:19:31.181Z,141.50
2022-12-16T06:23:15.500Z,135.40
2022-12-16T06:26:59.461Z,150.30
2022-12-16T06:30:44.036Z,150.30
2022-12-16T06:34:28.661Z,157.40
2022-12-16T06:38:12.555Z,148.70
2022-12-16T06:41:57.428Z,144.10
2022-12-16T06:45:41.941Z,139.60
2022-12-16T06:49:26.106Z,137.20
2022-12-16T06:53:10.689Z,137.70
2022-12-16T06:56:55.327Z,133.50
2022-12-16T07:00:40.200Z,142.40
2022-12-16T07:04:24.243Z,136.50
2022-12-16T07:08:11.691Z,133.40
2022-12-16T07:11:56.049Z,133.50
2022-12-16T07:15:40.460Z,134.30
2022-12-16T07:19:24.622Z,146.30
2022-12-16T07:23:13.337Z,160.80
2022-12-16T07:27:03.647Z,157.10
2022-12-16T07:30:48.275Z,174.10
2022-12-16T07:34:35.785Z,166.90
2022-12-16T07:38:24.233Z,193.50
2022-12-16T07:42:09.121Z,232.40
2022-12-16T07:45:52.506Z,258.20
2022-12-16T07:49:37.434Z,254.60
2022-12-16T07:53:22.359Z,233.60
2022-12-16T07:57:06.620Z,204.30
2022-12-16T08:00:54.807Z,201.90
2022-12-16T08:04:41.520Z,197.50
2022-12-16T08:08:28.248Z,179.10
2022-12-16T08:12:12.447Z,171.60
2022-12-16T08:15:56.868Z,142.00
2022-12-16T08:19:37.231Z,142.40
2022-12-16T08:23:21.489Z,147.00
2022-12-16T08:27:05.509Z,133.10
2022-12-16T08:30:50.669Z,146.40
2022-12-16T08:34:36.717Z,145.90
2022-12-16T08:38:21.052Z,152.20
2022-12-16T08:42:06.072Z,153.90
2022-12-16T08:45:50.357Z,149.40
2022-12-16T08:49:35.775Z,153.60
2022-12-16T08:53:20.173Z,178.50
2022-12-16T08:57:04.455Z,173.60
2022-12-16T09:00:48.688Z,172.60
2022-12-16T09:04:32.883Z,162.50
2022-12-16T09:08:21.194Z,162.50
2022-12-16T09:12:05.355Z,173.80
2022-12-16T09:15:50.057Z,153.20
2022-12-16T09:19:34.838Z,169.40
2022-12-16T09:23:22.657Z,159.70
2022-12-16T09:27:10.089Z,156.10
2022-12-16T09:30:54.461Z,149.80
2022-12-16T09:34:40.887Z,163.50
2022-12-16T09:38:24.834Z,154.80
2022-12-16T09:42:21.192Z,187.70
2022-12-16T09:46:14.538Z,183.20
2022-12-16T09:50:07.380Z,201.30
2022-12-16T09:53:55.628Z,180.20
2022-12-16T09:57:49.765Z,199.40
2022-12-16T10:01:37.058Z,157.30
2022-12-16T10:05:22.512Z,270.50
2022-12-16T10:09:16.946Z,179.70
2022-12-16T10:13:10.655Z,181.50
2022-12-16T10:17:03.573Z,192.20
2022-12-16T10:20:59.400Z,188.90
2022-12-16T10:24:52.935Z,175.90
2022-12-16T10:28:45.147Z,191.10
2022-12-16T10:32:38.023Z,175.70
2022-12-16T10:36:22.223Z,160.70
2022-12-16T10:40:16.727Z,190.30
2022-12-16T10:44:05.494Z,174.40
2022-12-16T10:47:50.682Z,187.60
2022-12-16T10:51:38.063Z,179.00
2022-12-16T10:55:33.728Z,183.50
2022-12-16T10:59:20.736Z,164.50
2022-12-16T11:03:04.761Z,152.90
2022-12-16T11:06:58.956Z,159.70
2022-12-16T11:10:54.482Z,158.80
2022-12-16T11:14:59.491Z,150.20
2022-12-16T11:18:47.579Z,153.10
2022-12-16T11:22:34.744Z,143.80
2022-12-16T11:26:37.430Z,136.10
2022-12-16T11:30:49.665Z,145.60
2022-12-16T11:34:36.211Z,142.30
2022-12-16T11:38:21.837Z,140.50
2022-12-16T11:42:09.962Z,144.60
2022-12-16T11:45:54.344Z,155.30
2022-12-16T11:49:46.750Z,165.00
2022-12-16T11:53:44.969Z,156.00
2022-12-16T11:57:39.135Z,151.80
2022-12-16T12:01:37.660Z,163.30
2022-12-16T12:05:25.038Z,169.50
2022-12-16T12:09:18.366Z,183.90
2022-12-16T12:13:08.976Z,197.40
2022-12-16T12:17:07.604Z,202.90
2022-12-16T12:21:02.748Z,194.40
2022-12-16T12:24:57.979Z,172.90
2022-12-16T12:28:55.093Z,169.00
2022-12-16T12:32:53.390Z,177.10
2022-12-16T12:36:48.396Z,175.20
2022-12-16T12:40:51.394Z,169.20
2022-12-16T12:44:58.421Z,122.80
2022-12-16T12:48:51.767Z,186.20
2022-12-16T12:52:58.119Z,180.30
2022-12-16T12:56:54.089Z,171.20
2022-12-16T13:00:47.990Z,161.70
2022-12-16T13:04:36.186Z,164.80
2022-12-16T13:08:59.875Z,176.80
2022-12-16T13:12:50.002Z,190.50
2022-12-16T13:17:37.454Z,165.50
2022-12-16T13:21:22.739Z,171.10
2022-12-16T13:25:10.580Z,194.70
2022-12-16T13:29:01.950Z,170.60
2022-12-16T13:32:52.206Z,165.80
2022-12-16T13:36:53.939Z,166.60
2022-12-16T13:40:42.324Z,151.00
2022-12-16T13:44:30.789Z,149.90
2022-12-16T13:48:44.925Z,163.50
2022-12-16T13:52:40.629Z,163.00
2022-12-16T13:56:31.942Z,157.90
2022-12-16T14:00:18.175Z,156.50
2022-12-16T14:04:07.057Z,161.50
2022-12-16T14:07:54.667Z,147.70
2022-12-16T14:11:42.713Z,147.80
2022-12-16T14:15:37.493Z,156.60
2022-12-16T14:19:41.091Z,157.90
2022-12-16T14:23:58.059Z,143.00
2022-12-16T14:27:43.439Z,140.10
2022-12-16T14:31:35.572Z,140.00
2022-12-16T14:35:26.115Z,137.30
2022-12-16T14:39:20.384Z,143.40
2022-12-16T14:43:12.879Z,140.00
2022-12-16T14:47:00.800Z,141.70
2022-12-16T14:50:49.044Z,151.60
2022-12-16T14:54:46.402Z,142.30
2022-12-16T14:58:35.513Z,139.30
2022-12-16T15:02:47.052Z,142.20
2022-12-16T15:06:49.667Z,146.30
2022-12-16T15:10:37.897Z,145.60
2022-12-16T15:14:25.934Z,148.70
2022-12-16T15:18:13.529Z,136.90
2022-12-16T15:21:58.297Z,152.60
2022-12-16T15:25:50.617Z,147.80
2022-12-16T15:30:08.139Z,142.00
2022-12-16T15:34:05.664Z,143.30
2022-12-16T15:38:04.243Z,146.90
2022-12-16T15:41:58.339Z,143.80
2022-12-16T15:45:46.650Z,141.20
2022-12-16T15:49:43.442Z,140.10
2022-12-16T15:53:49.732Z,140.50
2022-12-16T15:57:51.188Z,146.60
2022-12-16T16:01:39.925Z,125.80
2022-12-16T16:05:34.442Z,159.30
2022-12-16T16:09:19.473Z,153.80
2022-12-16T16:13:03.627Z,148.60
2022-12-16T16:16:48.816Z,146.60
2022-12-16T16:20:39.943Z,139.30
2022-12-16T16:24:29.700Z,180.40
2022-12-16T16:28:15.584Z,158.80
2022-12-16T16:32:04.060Z,163.90
2022-12-16T16:35:50.775Z,179.70
2022-12-16T16:39:35.160Z,160.00
2022-12-16T16:43:19.361Z,143.20
2022-12-16T16:47:05.170Z,135.10
2022-12-16T16:50:49.622Z,129.00
2022-12-16T16:54:34.847Z,143.50
2022-12-16T16:58:19.317Z,154.50
2022-12-16T17:02:06.580Z,135.20
2022-12-16T17:05:51.468Z,145.20
2022-12-16T17:09:36.695Z,143.60
2022-12-16T17:13:20.947Z,150.60
2022-12-16T17:17:04.815Z,154.60
2022-12-16T17:20:51.309Z,152.20
2022-12-16T17:24:35.516Z,165.00
2022-12-16T17:28:20.754Z,169.50
2022-12-16T17:32:04.864Z,152.20
2022-12-16T17:35:49.318Z,163.90
2022-12-16T17:39:33.465Z,162.30
2022-12-16T17:43:29.458Z,167.30
2022-12-16T17:47:14.663Z,177.70
2022-12-16T17:51:01.088Z,167.70
2022-12-16T17:54:45.649Z,177.00
2022-12-16T17:58:31.497Z,156.30
2022-12-16T18:02:17.609Z,152.10
2022-12-16T18:06:03.530Z,152.10
2022-12-16T18:09:48.478Z,146.70
2022-12-16T18:13:33.403Z,157.90
2022-12-16T18:17:21.851Z,144.90
2022-12-16T18:21:06.378Z,155.00
2022-12-16T18:24:52.680Z,150.50
2022-12-16T18:28:37.058Z,155.40
2022-12-16T18:32:21.302Z,153.70
2022-12-16T18:36:09.292Z,154.10
2022-12-16T18:40:00.088Z,155.40
2022-12-16T18:43:46.303Z,143.70
2022-12-16T18:47:31.014Z,159.00
2022-12-16T18:51:18.691Z,146.80
2022-12-16T18:55:07.967Z,135.10
2022-12-16T18:58:53.716Z,138.00
2022-12-16T19:02:38.417Z,129.10
2022-12-16T19:06:24.346Z,112.60
2022-12-16T19:10:09.312Z,117.00
2022-12-16T19:13:54.173Z,122.60
2022-12-16T19:17:38.907Z,123.30
2022-12-16T19:21:23.823Z,126.00
2022-12-16T19:25:12.297Z,115.20
2022-12-16T19:28:57.644Z,105.00
2022-12-16T19:32:38.398Z,104.30
2022-12-16T19:36:22.627Z,110.80
2022-12-16T19:40:06.822Z,114.20
2022-12-16T19:43:53.070Z,110.90
2022-12-16T19:47:41.312Z,116.20
2022-12-16T19:51:39.025Z,114.70
2022-12-16T19:55:25.780Z,104.20
2022-12-16T19:59:12.150Z,101.50
2022-12-16T20:03:05.009Z,102.20
2022-12-16T20:06:52.520Z,107.90
2022-12-16T20:10:40.469Z,98.10
2022-12-16T20:14:49.785Z,98.70
2022-12-16T20:18:35.229Z,100.40
2022-12-16T20:22:23.696Z,103.10
2022-12-16T20:26:18.171Z,105.40
2022-12-16T20:30:12.419Z,92.80
2022-12-16T20:34:03.127Z,95.10
2022-12-16T20:41:58.338Z,97.80
2022-12-16T20:45:45.447Z,86.70
2022-12-16T20:49:35.216Z,95.30
2022-12-16T20:53:22.462Z,106.80
2022-12-16T20:57:12.489Z,95.50
2022-12-16T21:00:58.107Z,118.00
2022-12-16T21:04:46.771Z,113.90
2022-12-16T21:08:31.650Z,106.80
2022-12-16T21:12:23.697Z,96.70
2022-12-16T21:16:10.572Z,104.40
2022-12-16T21:19:58.650Z,104.50
2022-12-16T21:23:45.227Z,108.80
2022-12-16T21:27:30.142Z,103.30
2022-12-16T21:31:18.488Z,98.50
2022-12-16T21:35:03.162Z,101.40
2022-12-16T21:38:52.560Z,96.20
2022-12-16T21:42:44.472Z,101.30
2022-12-16T21:46:28.574Z,96.40
2022-12-16T21:50:14.567Z,124.40
2022-12-16T21:54:08.236Z,97.70
2022-12-16T21:57:54.829Z,98.00
2022-12-16T22:01:41.456Z,104.30
2022-12-16T22:05:45.671Z,129.20
2022-12-16T22:09:34.809Z,93.00
2022-12-16T22:13:35.553Z,110.30
2022-12-16T22:17:37.740Z,113.10
2022-12-16T22:21:24.234Z,113.20
2022-12-16T22:25:14.387Z,105.00
2022-12-16T22:29:03.926Z,115.00
2022-12-16T22:32:48.517Z,102.20
2022-12-16T22:36:35.058Z,93.10
2022-12-16T22:40:20.381Z,87.20
2022-12-16T22:44:07.663Z,92.30
2022-12-16T22:48:04.715Z,87.10
2022-12-16T22:52:06.469Z,99.90
2022-12-16T22:55:54.396Z,96.10
2022-12-16T22:59:44.259Z,94.70
2022-12-16T23:03:35.722Z,124.60
2022-12-16T23:07:21.845Z,132.10
2022-12-16T23:11:22.410Z,114.00
2022-12-16T23:15:06.485Z,90.20
2022-12-16T23:18:52.261Z,89.10
2022-12-16T23:22:37.805Z,87.60
2022-12-16T23:26:24.085Z,94.60
2022-12-16T23:30:08.821Z,76.80
2022-12-16T23:32:30.185Z,89.60
2022-12-16T23:33:53.834Z,90.10
2022-12-16T23:37:42.420Z,83.30
2022-12-16T23:41:28.599Z,84.00
2022-12-16T23:45:15.494Z,86.20
2022-12-16T23:49:16.506Z,68.20
2022-12-16T23:53:02.935Z,76.30
2022-12-16T23:56:47.039Z,72.00
